Time;durP1;ratioP1;P1;durP2;ratioP2;P2;SDS_P1;SDS_P2;PMS_P1;PMS_P2;Temp;Humidity;BMP_temperature;BMP_pressure;BME280_temperature;BME280_humidity;BME280_pressure;Samples;Min_cycle;Max_cycle;Signal;HPM_P1;HPM_P2
2022/03/31 00:00:28;;;;;;;8.82;5.63;;;;;;;;;;5055551;28;20031;-78
2022/03/31 00:02:55;;;;;;;7.65;5.18;;;;;;;;;;5037696;28;20029;-77
2022/03/31 00:05:21;;;;;;;9.80;6.35;;;;;;;;;;5055520;28;20036;-77
2022/03/31 00:07:48;;;;;;;12.68;6.38;;;;;;;;;;5055512;28;20027;-77
2022/03/31 00:10:14;;;;;;;7.40;5.45;;;;;;;;;;5055335;28;20048;-78
2022/03/31 00:12:40;;;;;;;8.18;5.80;;;;;;;;;;5056381;28;20033;-77
2022/03/31 00:15:07;;;;;;;9.57;5.75;;;;;;;;;;5075606;28;20032;-78
2022/03/31 00:17:33;;;;;;;7.93;5.07;;;;;;;;;;5075253;28;20047;-77
2022/03/31 00:19:59;;;;;;;6.47;4.72;;;;;;;;;;5075221;28;20471;-78
2022/03/31 00:22:25;;;;;;;7.45;5.07;;;;;;;;;;5075007;28;20040;-78
2022/03/31 00:24:51;;;;;;;6.38;4.95;;;;;;;;;;5075706;28;20036;-78
2022/03/31 00:27:17;;;;;;;4.88;3.85;;;;;;;;;;5075128;28;20033;-77
2022/03/31 00:29:43;;;;;;;5.60;3.78;;;;;;;;;;5075141;28;20078;-78
2022/03/31 00:32:09;;;;;;;4.88;3.60;;;;;;;;;;5074868;28;20421;-77
2022/03/31 00:34:35;;;;;;;5.18;3.80;;;;;;;;;;5075026;28;20028;-77
2022/03/31 00:37:01;;;;;;;6.15;3.70;;;;;;;;;;5074889;28;20368;-77
2022/03/31 00:39:34;;;;;;;4.50;3.42;;;;;;;;;;5074676;28;20028;-77
2022/03/31 00:42:00;;;;;;;4.13;2.83;;;;;;;;;;5060657;28;20048;-77
2022/03/31 00:44:26;;;;;;;4.18;2.80;;;;;;;;;;5054273;28;20032;-77
2022/03/31 00:46:53;;;;;;;3.08;2.30;;;;;;;;;;5053804;28;20029;-77
2022/03/31 00:49:20;;;;;;;4.03;2.60;;;;;;;;;;5054146;28;20090;-77
2022/03/31 00:51:46;;;;;;;2.80;2.22;;;;;;;;;;5054229;28;20143;-77
2022/03/31 00:54:13;;;;;;;2.95;2.25;;;;;;;;;;5053253;28;20442;-77
2022/03/31 00:56:41;;;;;;;2.40;1.92;;;;;;;;;;5054420;28;20066;-77
2022/03/31 00:59:08;;;;;;;2.70;2.17;;;;;;;;;;5054277;28;20021;-77
2022/03/31 01:01:36;;;;;;;5.13;2.78;;;;;;;;;;5054529;28;20029;-77
2022/03/31 01:04:03;;;;;;;4.60;2.75;;;;;;;;;;5054269;28;20067;-77
2022/03/31 01:06:29;;;;;;;2.50;2.22;;;;;;;;;;5054314;28;20108;-78
2022/03/31 01:08:55;;;;;;;2.83;2.30;;;;;;;;;;5054299;28;20063;-77
2022/03/31 01:11:21;;;;;;;3.20;2.40;;;;;;;;;;5054273;28;20021;-78
2022/03/31 01:13:48;;;;;;;2.97;2.35;;;;;;;;;;5064490;28;20020;-78
2022/03/31 01:16:14;;;;;;;4.63;2.42;;;;;;;;;;5074263;28;20012;-77
2022/03/31 01:18:40;;;;;;;3.28;2.50;;;;;;;;;;5074402;28;20367;-78
2022/03/31 01:21:06;;;;;;;2.55;2.03;;;;;;;;;;5074246;28;20024;-77
2022/03/31 01:23:33;;;;;;;2.20;1.77;;;;;;;;;;5074130;28;20029;-78
2022/03/31 01:25:59;;;;;;;3.10;2.20;;;;;;;;;;5073753;28;20458;-78
2022/03/31 01:28:25;;;;;;;2.50;1.90;;;;;;;;;;5073823;28;20039;-78
2022/03/31 01:30:52;;;;;;;2.53;1.98;;;;;;;;;;5073920;28;20107;-77
2022/03/31 01:33:18;;;;;;;4.38;1.85;;;;;;;;;;5074105;28;20095;-78
2022/03/31 01:35:44;;;;;;;2.42;1.80;;;;;;;;;;5073775;28;20151;-77
2022/03/31 01:38:10;;;;;;;2.28;1.60;;;;;;;;;;5073747;28;20032;-78
2022/03/31 01:40:36;;;;;;;2.20;1.77;;;;;;;;;;5070616;28;20028;-77
2022/03/31 01:43:02;;;;;;;2.05;1.70;;;;;;;;;;5053609;28;20025;-78
2022/03/31 01:45:29;;;;;;;2.40;2.00;;;;;;;;;;5053551;28;20036;-77
2022/03/31 01:47:55;;;;;;;2.28;1.80;;;;;;;;;;5053247;28;20498;-77
2022/03/31 01:50:21;;;;;;;4.10;1.67;;;;;;;;;;5053118;28;20368;-78
2022/03/31 01:52:48;;;;;;;2.42;1.95;;;;;;;;;;5053193;28;20100;-78
2022/03/31 01:55:14;;;;;;;2.15;1.70;;;;;;;;;;5053016;28;20020;-77
2022/03/31 01:57:40;;;;;;;4.05;1.50;;;;;;;;;;5053028;28;20332;-77
2022/03/31 02:00:08;;;;;;;1.90;1.67;;;;;;;;;;5052097;28;20447;-77
2022/03/31 02:02:34;;;;;;;2.05;1.58;;;;;;;;;;5053055;28;20052;-78
2022/03/31 02:05:00;;;;;;;2.28;1.60;;;;;;;;;;5053148;28;20033;-77
2022/03/31 02:07:26;;;;;;;1.70;1.45;;;;;;;;;;5052989;28;20538;-77
2022/03/31 02:09:52;;;;;;;2.60;1.38;;;;;;;;;;5052816;28;20113;-77
2022/03/31 02:12:18;;;;;;;1.90;1.55;;;;;;;;;;5052782;28;20013;-77
2022/03/31 02:14:44;;;;;;;1.90;1.50;;;;;;;;;;5052632;28;20055;-78
2022/03/31 02:17:11;;;;;;;1.30;1.20;;;;;;;;;;5072533;28;20021;-77
2022/03/31 02:19:37;;;;;;;1.58;1.27;;;;;;;;;;5072493;28;20028;-77
2022/03/31 02:22:04;;;;;;;2.33;1.30;;;;;;;;;;5072798;28;20024;-77
2022/03/31 02:24:30;;;;;;;1.30;1.17;;;;;;;;;;5072661;28;20351;-77
2022/03/31 02:26:57;;;;;;;2.83;1.60;;;;;;;;;;5072350;28;20032;-77
2022/03/31 02:29:23;;;;;;;2.17;1.27;;;;;;;;;;5072457;28;20246;-77
2022/03/31 02:31:49;;;;;;;1.85;1.33;;;;;;;;;;5072732;28;20029;-78
2022/03/31 02:34:16;;;;;;;2.00;1.50;;;;;;;;;;5072701;28;20177;-77
2022/03/31 02:36:42;;;;;;;1.65;1.40;;;;;;;;;;5072689;28;20177;-78
2022/03/31 02:39:09;;;;;;;4.63;1.58;;;;;;;;;;5072354;28;20581;-78
2022/03/31 02:41:35;;;;;;;2.15;1.42;;;;;;;;;;5061907;28;20449;-78
2022/03/31 02:44:02;;;;;;;1.70;1.38;;;;;;;;;;5052718;28;20049;-77
2022/03/31 02:46:28;;;;;;;3.35;1.60;;;;;;;;;;5052881;28;20034;-78
2022/03/31 02:48:55;;;;;;;2.13;1.52;;;;;;;;;;5052546;28;20044;-78
2022/03/31 02:51:22;;;;;;;1.85;1.40;;;;;;;;;;5052395;28;20475;-78
2022/03/31 02:56:34;;;;;;;1.60;1.20;;;;;;;;;;5052897;28;20036;-77
2022/03/31 02:59:00;;;;;;;3.35;1.10;;;;;;;;;;5052636;28;20118;-77
2022/03/31 03:01:29;;;;;;;2.60;1.25;;;;;;;;;;5052275;28;20490;-78
2022/03/31 03:03:56;;;;;;;2.33;1.50;;;;;;;;;;5052180;28;20032;-78
2022/03/31 03:06:22;;;;;;;2.28;1.48;;;;;;;;;;5034466;28;20529;-78
2022/03/31 03:08:48;;;;;;;1.73;1.30;;;;;;;;;;5052162;28;20036;-77
2022/03/31 03:11:15;;;;;;;4.00;1.80;;;;;;;;;;5057171;28;20095;-77
2022/03/31 03:13:42;;;;;;;1.95;1.42;;;;;;;;;;5068202;28;20047;-77
2022/03/31 03:16:08;;;;;;;3.55;2.00;;;;;;;;;;5079034;28;20031;-77
2022/03/31 03:18:35;;;;;;;2.33;1.70;;;;;;;;;;5078998;28;20074;-77
2022/03/31 03:21:01;;;;;;;2.47;1.77;;;;;;;;;;5058791;28;20033;-78
2022/03/31 03:23:28;;;;;;;3.13;2.08;;;;;;;;;;5058790;28;20053;-77
2022/03/31 03:25:54;;;;;;;3.20;2.20;;;;;;;;;;5058722;28;20079;-77
2022/03/31 03:28:20;;;;;;;2.65;1.83;;;;;;;;;;5058748;28;20021;-77
2022/03/31 03:30:46;;;;;;;3.70;2.30;;;;;;;;;;5058921;28;20455;-78
2022/03/31 03:33:12;;;;;;;3.53;2.50;;;;;;;;;;5058771;28;20051;-77
2022/03/31 03:35:38;;;;;;;3.08;2.30;;;;;;;;;;5058957;28;20049;-78
2022/03/31 03:38:04;;;;;;;3.08;2.20;;;;;;;;;;5058870;28;20021;-78
2022/03/31 03:40:31;;;;;;;4.22;2.08;;;;;;;;;;5058613;28;20075;-77
2022/03/31 03:42:57;;;;;;;2.65;1.75;;;;;;;;;;5058748;28;20073;-77
2022/03/31 03:45:24;;;;;;;3.90;2.17;;;;;;;;;;5058601;28;20033;-78
2022/03/31 03:47:50;;;;;;;2.35;1.75;;;;;;;;;;5058532;28;20086;-78
2022/03/31 03:50:16;;;;;;;2.80;2.10;;;;;;;;;;5058269;28;20463;-77
2022/03/31 03:52:42;;;;;;;2.40;1.98;;;;;;;;;;5058378;28;20340;-78
2022/03/31 03:55:08;;;;;;;5.78;2.10;;;;;;;;;;5056923;28;20458;-77
2022/03/31 03:57:34;;;;;;;3.53;1.98;;;;;;;;;;5058292;28;20108;-77
2022/03/31 04:00:00;;;;;;;2.45;1.95;;;;;;;;;;5058397;28;20025;-78
2022/03/31 04:02:26;;;;;;;2.80;1.80;;;;;;;;;;5058623;28;20017;-77
2022/03/31 04:04:53;;;;;;;2.30;1.77;;;;;;;;;;5058447;28;20037;-78
2022/03/31 04:07:19;;;;;;;3.33;1.65;;;;;;;;;;5058494;28;20083;-78
2022/03/31 04:09:45;;;;;;;2.50;1.75;;;;;;;;;;5058690;28;20459;-78
2022/03/31 04:12:11;;;;;;;2.50;1.65;;;;;;;;;;5058765;28;20104;-78
2022/03/31 04:14:37;;;;;;;3.42;1.95;;;;;;;;;;5058528;28;20096;-78
2022/03/31 04:17:03;;;;;;;2.58;1.55;;;;;;;;;;5058404;28;20060;-78
2022/03/31 04:19:29;;;;;;;3.90;2.25;;;;;;;;;;5065851;28;20078;-78
2022/03/31 04:21:55;;;;;;;3.15;1.95;;;;;;;;;;5076312;28;20025;-78
2022/03/31 04:24:21;;;;;;;3.28;1.80;;;;;;;;;;5075448;28;20051;-78
2022/03/31 04:26:47;;;;;;;4.28;1.90;;;;;;;;;;5075125;28;20037;-78
2022/03/31 04:29:13;;;;;;;3.00;2.10;;;;;;;;;;5074744;28;20028;-78
2022/03/31 04:31:41;;;;;;;2.65;2.03;;;;;;;;;;5074805;28;20074;-78
2022/03/31 04:34:08;;;;;;;3.70;2.40;;;;;;;;;;5075061;28;20052;-78
2022/03/31 04:36:35;;;;;;;3.05;2.42;;;;;;;;;;5074909;28;20024;-78
2022/03/31 04:39:01;;;;;;;3.50;2.47;;;;;;;;;;5057325;28;20028;-78
2022/03/31 04:41:27;;;;;;;2.55;2.03;;;;;;;;;;5074842;28;20024;-79
2022/03/31 04:43:53;;;;;;;3.78;2.40;;;;;;;;;;5074901;28;20032;-78
2022/03/31 04:46:20;;;;;;;3.90;2.28;;;;;;;;;;5074798;28;20108;-77
2022/03/31 04:48:46;;;;;;;3.00;2.17;;;;;;;;;;5074417;28;20072;-78
2022/03/31 04:51:12;;;;;;;3.75;2.40;;;;;;;;;;5074521;28;20032;-77
2022/03/31 04:53:38;;;;;;;4.93;2.65;;;;;;;;;;5074652;28;20020;-78
2022/03/31 04:56:04;;;;;;;6.15;2.85;;;;;;;;;;5074085;28;20025;-77
2022/03/31 04:58:30;;;;;;;3.72;2.78;;;;;;;;;;5074387;28;20047;-78
2022/03/31 05:00:56;;;;;;;4.18;3.03;;;;;;;;;;5074372;28;20039;-78
2022/03/31 05:03:22;;;;;;;7.55;2.78;;;;;;;;;;5074231;28;20040;-77
2022/03/31 05:05:49;;;;;;;4.10;2.78;;;;;;;;;;5073698;28;20044;-77
2022/03/31 05:08:15;;;;;;;6.40;2.85;;;;;;;;;;5074066;28;20016;-77
2022/03/31 05:10:42;;;;;;;4.57;2.80;;;;;;;;;;5073873;28;20098;-77
2022/03/31 05:13:08;;;;;;;5.72;2.90;;;;;;;;;;5073682;28;20031;-78
2022/03/31 05:15:34;;;;;;;5.40;2.75;;;;;;;;;;5073634;28;20017;-77
2022/03/31 05:18:00;;;;;;;3.60;2.88;;;;;;;;;;5073758;28;20466;-77
2022/03/31 05:20:26;;;;;;;5.43;3.00;;;;;;;;;;5052146;28;20467;-77
2022/03/31 05:22:52;;;;;;;4.88;3.10;;;;;;;;;;5053481;28;20074;-77
2022/03/31 05:25:18;;;;;;;6.75;3.40;;;;;;;;;;5053397;28;20029;-77
2022/03/31 05:27:45;;;;;;;6.07;3.30;;;;;;;;;;5053219;28;20534;-78
2022/03/31 05:30:12;;;;;;;5.65;3.63;;;;;;;;;;5059078;28;20019;-77
2022/03/31 05:32:38;;;;;;;5.93;3.75;;;;;;;;;;5073344;28;20024;-77
2022/03/31 05:35:05;;;;;;;6.78;3.67;;;;;;;;;;5073363;28;20028;-78
2022/03/31 05:37:31;;;;;;;5.63;3.40;;;;;;;;;;5073421;28;20107;-78
2022/03/31 05:39:57;;;;;;;7.40;3.50;;;;;;;;;;5073320;28;20204;-77
2022/03/31 05:42:23;;;;;;;9.95;3.58;;;;;;;;;;5072935;28;20024;-77
2022/03/31 05:44:49;;;;;;;12.63;4.40;;;;;;;;;;5073289;28;20086;-77
2022/03/31 05:47:15;;;;;;;7.03;4.15;;;;;;;;;;5073305;28;20383;-78
2022/03/31 05:49:41;;;;;;;6.40;4.05;;;;;;;;;;5072981;28;20056;-78
2022/03/31 05:52:07;;;;;;;5.13;3.80;;;;;;;;;;5073266;28;20021;-78
2022/03/31 05:54:33;;;;;;;4.68;3.15;;;;;;;;;;5073091;28;20028;-77
2022/03/31 05:56:59;;;;;;;3.75;2.70;;;;;;;;;;5073220;28;20075;-77
2022/03/31 05:59:25;;;;;;;4.07;2.85;;;;;;;;;;5073168;28;20020;-78
2022/03/31 06:01:51;;;;;;;5.43;2.72;;;;;;;;;;5073362;28;20110;-78
2022/03/31 06:04:20;;;;;;;3.95;2.58;;;;;;;;;;5073112;28;20040;-78
2022/03/31 06:06:47;;;;;;;4.70;3.15;;;;;;;;;;5072935;28;20016;-78
2022/03/31 06:09:14;;;;;;;6.55;4.00;;;;;;;;;;5072858;28;20040;-78
2022/03/31 06:11:40;;;;;;;7.00;3.83;;;;;;;;;;5072762;28;20017;-78
2022/03/31 06:14:06;;;;;;;5.75;3.58;;;;;;;;;;5072490;28;20028;-77
2022/03/31 06:16:33;;;;;;;5.82;3.60;;;;;;;;;;5072569;28;20035;-77
2022/03/31 06:18:59;;;;;;;7.38;3.65;;;;;;;;;;5072192;28;20031;-77
2022/03/31 06:21:25;;;;;;;6.22;3.55;;;;;;;;;;5072286;28;20060;-77
2022/03/31 06:23:51;;;;;;;5.57;3.47;;;;;;;;;;5072414;28;20058;-77
2022/03/31 06:26:17;;;;;;;5.93;3.90;;;;;;;;;;5071962;28;20040;-77
2022/03/31 06:28:43;;;;;;;8.48;5.15;;;;;;;;;;5072196;28;20035;-76
2022/03/31 06:31:09;;;;;;;7.55;4.72;;;;;;;;;;5072149;28;20387;-77
2022/03/31 06:33:37;;;;;;;7.47;4.55;;;;;;;;;;5072109;28;20024;-77
2022/03/31 06:36:03;;;;;;;8.85;5.63;;;;;;;;;;5071938;28;20028;-77
2022/03/31 06:38:29;;;;;;;5.25;3.90;;;;;;;;;;5072116;28;20128;-77
2022/03/31 06:41:10;;;;;;;8.63;4.53;;;;;;;;;;5071792;28;20470;-77
2022/03/31 06:43:37;;;;;;;5.65;3.83;;;;;;;;;;5072088;28;20029;-77
2022/03/31 06:46:03;;;;;;;8.30;4.80;;;;;;;;;;5053407;28;20501;-77
2022/03/31 06:48:30;;;;;;;7.03;4.43;;;;;;;;;;5071777;28;20028;-77
2022/03/31 06:50:56;;;;;;;10.85;4.78;;;;;;;;;;5071755;28;20060;-77
2022/03/31 06:53:23;;;;;;;8.30;4.53;;;;;;;;;;5071901;28;20021;-77
2022/03/31 06:55:49;;;;;;;9.43;4.97;;;;;;;;;;5071750;28;20017;-77
2022/03/31 06:58:15;;;;;;;14.45;8.95;;;;;;;;;;5071824;28;20107;-77
2022/03/31 07:00:41;;;;;;;12.65;8.48;;;;;;;;;;5053497;28;20038;-77
2022/03/31 07:03:07;;;;;;;14.93;9.05;;;;;;;;;;5071789;28;20040;-77
2022/03/31 07:05:37;;;;;;;11.63;7.35;;;;;;;;;;5071530;28;20078;-77
2022/03/31 07:08:03;;;;;;;16.17;8.40;;;;;;;;;;5071665;28;20455;-77
2022/03/31 07:10:29;;;;;;;12.60;8.63;;;;;;;;;;5071777;28;20035;-77
2022/03/31 07:12:55;;;;;;;19.38;11.20;;;;;;;;;;5071420;28;20024;-77
2022/03/31 07:15:21;;;;;;;16.63;10.23;;;;;;;;;;5071616;28;20032;-77
2022/03/31 07:17:48;;;;;;;18.52;10.75;;;;;;;;;;5071690;28;20036;-77
2022/03/31 07:20:14;;;;;;;16.58;10.25;;;;;;;;;;5071494;28;20576;-77
2022/03/31 07:22:50;;;;;;;25.23;12.30;;;;;;;;;;5071488;28;20033;-76
2022/03/31 07:25:16;;;;;;;15.60;9.98;;;;;;;;;;5071392;28;20029;-77
2022/03/31 07:27:42;;;;;;;16.75;10.25;;;;;;;;;;5071195;28;20036;-77
2022/03/31 07:30:09;;;;;;;14.07;8.60;;;;;;;;;;5071417;28;20154;-77
2022/03/31 07:32:35;;;;;;;20.58;8.27;;;;;;;;;;5053523;28;20025;-77
2022/03/31 07:35:01;;;;;;;18.15;7.78;;;;;;;;;;5071305;28;20016;-77
2022/03/31 07:37:28;;;;;;;10.68;6.93;;;;;;;;;;5071382;28;20439;-77
2022/03/31 07:39:54;;;;;;;10.45;6.45;;;;;;;;;;5071300;28;20055;-77
2022/03/31 07:42:20;;;;;;;9.50;5.40;;;;;;;;;;5071139;28;20463;-77
2022/03/31 07:44:46;;;;;;;11.00;5.53;;;;;;;;;;5071413;28;20029;-77
2022/03/31 07:47:12;;;;;;;7.30;4.68;;;;;;;;;;5071376;28;20024;-78
2022/03/31 07:49:38;;;;;;;7.82;5.20;;;;;;;;;;5071117;28;20146;-77
2022/03/31 07:52:04;;;;;;;8.20;4.50;;;;;;;;;;5071343;28;20030;-78
2022/03/31 07:54:31;;;;;;;6.85;4.70;;;;;;;;;;5071135;28;20052;-77
2022/03/31 07:56:57;;;;;;;8.63;5.43;;;;;;;;;;5073699;28;20051;-77
2022/03/31 07:59:25;;;;;;;8.52;4.47;;;;;;;;;;5076045;28;20032;-77
2022/03/31 08:01:52;;;;;;;8.90;4.57;;;;;;;;;;5075599;28;20104;-77
2022/03/31 08:04:18;;;;;;;8.48;4.10;;;;;;;;;;5075185;28;20087;-77
2022/03/31 08:06:44;;;;;;;6.45;4.40;;;;;;;;;;5075010;28;20490;-78
2022/03/31 08:09:12;;;;;;;9.85;3.05;;;;;;;;;;5075456;28;20028;-78
2022/03/31 08:11:39;;;;;;;7.70;3.80;;;;;;;;;;5075809;28;20021;-78
2022/03/31 08:14:05;;;;;;;10.30;3.80;;;;;;;;;;5075821;28;20103;-79
2022/03/31 08:16:32;;;;;;;7.75;4.60;;;;;;;;;;5075833;28;20025;-79
2022/03/31 08:18:58;;;;;;;7.65;4.53;;;;;;;;;;5075881;28;20028;-79
2022/03/31 08:21:25;;;;;;;9.02;6.03;;;;;;;;;;5057848;28;20028;-78
2022/03/31 08:23:51;;;;;;;8.50;5.28;;;;;;;;;;5076050;28;20117;-79
2022/03/31 08:26:17;;;;;;;5.38;4.28;;;;;;;;;;5075935;28;20094;-79
2022/03/31 08:28:43;;;;;;;5.50;4.07;;;;;;;;;;5075751;28;20453;-79
2022/03/31 08:31:09;;;;;;;5.90;4.40;;;;;;;;;;5075525;28;20020;-79
2022/03/31 08:33:35;;;;;;;8.55;4.85;;;;;;;;;;5075815;28;20113;-79
2022/03/31 08:36:01;;;;;;;7.32;4.40;;;;;;;;;;5075538;28;20035;-79
2022/03/31 08:38:27;;;;;;;12.38;5.65;;;;;;;;;;5075367;28;20024;-78
2022/03/31 08:40:56;;;;;;;6.60;4.55;;;;;;;;;;5075707;28;20028;-79
2022/03/31 08:43:22;;;;;;;6.45;4.40;;;;;;;;;;5057459;28;20086;-78
2022/03/31 08:45:55;;;;;;;6.47;4.35;;;;;;;;;;5057469;28;20036;-78
2022/03/31 08:48:26;;;;;;;6.95;4.30;;;;;;;;;;5075017;28;20068;-78
2022/03/31 08:50:52;;;;;;;6.47;4.70;;;;;;;;;;5075185;28;20064;-77
2022/03/31 08:53:18;;;;;;;6.15;4.40;;;;;;;;;;5075125;28;20466;-78
2022/03/31 08:55:44;;;;;;;6.53;4.60;;;;;;;;;;5075278;28;20379;-78
2022/03/31 08:58:10;;;;;;;7.95;5.53;;;;;;;;;;5074834;28;20463;-78
2022/03/31 09:00:36;;;;;;;7.40;4.88;;;;;;;;;;5075265;28;20048;-78
2022/03/31 09:03:04;;;;;;;6.43;4.88;;;;;;;;;;5074765;28;20032;-77
2022/03/31 09:05:37;;;;;;;8.23;4.95;;;;;;;;;;5075073;28;20029;-78
2022/03/31 09:08:05;;;;;;;6.63;4.70;;;;;;;;;;5074421;28;20074;-78
2022/03/31 09:10:31;;;;;;;7.63;5.47;;;;;;;;;;5074960;28;20017;-78
2022/03/31 09:12:58;;;;;;;6.60;5.25;;;;;;;;;;5071337;28;20025;-78
2022/03/31 09:15:24;;;;;;;8.98;5.72;;;;;;;;;;5054536;28;20359;-77
2022/03/31 09:17:54;;;;;;;7.10;5.18;;;;;;;;;;5054683;28;20053;-77
2022/03/31 09:20:21;;;;;;;6.72;4.97;;;;;;;;;;5069123;28;20028;-78
2022/03/31 09:22:49;;;;;;;6.15;4.75;;;;;;;;;;5074487;28;20119;-78
2022/03/31 09:25:27;;;;;;;7.03;5.15;;;;;;;;;;5074554;28;20093;-78
2022/03/31 09:27:55;;;;;;;8.57;4.97;;;;;;;;;;5074525;28;20029;-77
2022/03/31 09:30:21;;;;;;;7.28;5.13;;;;;;;;;;5074236;28;20375;-78
2022/03/31 09:32:51;;;;;;;7.75;4.65;;;;;;;;;;5074352;28;20025;-78
2022/03/31 09:35:21;;;;;;;6.82;4.85;;;;;;;;;;5074911;28;20024;-78
2022/03/31 09:37:49;;;;;;;5.30;4.53;;;;;;;;;;5074162;28;20038;-78
2022/03/31 09:40:16;;;;;;;5.93;4.07;;;;;;;;;;5074433;28;20425;-78
2022/03/31 09:42:42;;;;;;;6.60;5.03;;;;;;;;;;5074104;28;20025;-78
2022/03/31 09:45:10;;;;;;;5.20;4.13;;;;;;;;;;5074189;28;20027;-78
2022/03/31 09:47:47;;;;;;;5.55;4.28;;;;;;;;;;5073913;28;20038;-78
2022/03/31 09:50:14;;;;;;;6.13;4.65;;;;;;;;;;5073768;28;20485;-78
2022/03/31 09:52:41;;;;;;;5.18;4.13;;;;;;;;;;5074098;28;20129;-77
2022/03/31 09:55:08;;;;;;;6.97;4.72;;;;;;;;;;5074120;28;20096;-78
2022/03/31 09:57:35;;;;;;;7.50;4.85;;;;;;;;;;5073828;28;20485;-78
2022/03/31 10:00:02;;;;;;;5.82;4.63;;;;;;;;;;5055977;28;20363;-77
2022/03/31 10:02:28;;;;;;;6.88;4.60;;;;;;;;;;5073767;28;20348;-78
2022/03/31 10:04:54;;;;;;;6.00;4.68;;;;;;;;;;5073818;28;20351;-77
2022/03/31 10:07:22;;;;;;;5.97;4.63;;;;;;;;;;5073576;28;20036;-78
2022/03/31 10:09:48;;;;;;;6.47;4.90;;;;;;;;;;5073511;28;20538;-76
2022/03/31 10:12:17;;;;;;;5.93;4.80;;;;;;;;;;5073480;28;20029;-77
2022/03/31 10:14:49;;;;;;;6.55;4.70;;;;;;;;;;5055425;28;20021;-77
2022/03/31 10:17:16;;;;;;;7.07;4.60;;;;;;;;;;5053326;28;20043;-77
2022/03/31 10:19:44;;;;;;;5.18;4.18;;;;;;;;;;5052739;28;20021;-77
2022/03/31 10:25:03;;;;;;;5.95;4.63;;;;;;;;;;5053822;28;20482;-77
2022/03/31 10:27:31;;;;;;;5.72;4.40;;;;;;;;;;5053482;28;20124;-78
2022/03/31 10:30:09;;;;;;;6.07;4.40;;;;;;;;;;5056646;28;20040;-78
2022/03/31 10:32:35;;;;;;;5.90;4.47;;;;;;;;;;5073045;28;20482;-77
2022/03/31 10:35:01;;;;;;;6.75;4.30;;;;;;;;;;5073290;28;20025;-78
2022/03/31 10:37:36;;;;;;;5.60;4.32;;;;;;;;;;5073138;28;20017;-77
2022/03/31 10:40:06;;;;;;;5.28;4.38;;;;;;;;;;5073222;28;20454;-77
2022/03/31 10:42:32;;;;;;;6.03;5.10;;;;;;;;;;5073116;28;20031;-78
2022/03/31 10:45:04;;;;;;;6.43;4.10;;;;;;;;;;5073100;28;20477;-77
2022/03/31 10:47:35;;;;;;;6.03;4.90;;;;;;;;;;5072917;28;20116;-78
2022/03/31 10:50:01;;;;;;;5.32;4.43;;;;;;;;;;5054777;28;20394;-77
2022/03/31 10:52:28;;;;;;;5.15;4.00;;;;;;;;;;5072996;28;20016;-77
2022/03/31 10:55:04;;;;;;;6.43;5.20;;;;;;;;;;5072963;28;20091;-78
2022/03/31 10:57:37;;;;;;;5.60;4.68;;;;;;;;;;5072813;28;20466;-78
2022/03/31 11:00:07;;;;;;;5.38;4.43;;;;;;;;;;5073067;28;20033;-78
2022/03/31 11:02:39;;;;;;;5.40;4.20;;;;;;;;;;5072749;28;20048;-77
2022/03/31 11:05:05;;;;;;;;;;;;;;;;;;5073164;28;20060;-77
2022/03/31 11:07:31;;;;;;;5.93;4.82;;;;;;;;;;5072389;28;19904;-78
2022/03/31 11:10:00;;;;;;;5.30;4.57;;;;;;;;;;5072638;28;20407;-78
2022/03/31 11:12:28;;;;;;;4.63;3.97;;;;;;;;;;5072780;28;20021;-78
2022/03/31 11:14:56;;;;;;;4.13;3.72;;;;;;;;;;5072505;28;20017;-78
2022/03/31 11:17:22;;;;;;;5.07;4.35;;;;;;;;;;5072479;28;20025;-78
2022/03/31 11:19:49;;;;;;;3.58;3.28;;;;;;;;;;5072618;28;20027;-78
2022/03/31 11:22:19;;;;;;;4.38;3.95;;;;;;;;;;5072468;28;20414;-78
2022/03/31 11:24:45;;;;;;;3.50;3.20;;;;;;;;;;5073017;28;20033;-77
2022/03/31 11:27:11;;;;;;;4.05;3.30;;;;;;;;;;5072413;28;20029;-78
2022/03/31 11:29:37;;;;;;;4.00;3.60;;;;;;;;;;5072498;28;20025;-78
2022/03/31 11:32:05;;;;;;;3.55;3.20;;;;;;;;;;5074837;28;20024;-77
2022/03/31 11:34:31;;;;;;;3.92;3.35;;;;;;;;;;5076401;28;20499;-78
2022/03/31 11:36:57;;;;;;;3.80;3.10;;;;;;;;;;5076627;28;20056;-78
2022/03/31 11:39:28;;;;;;;3.58;2.90;;;;;;;;;;5076319;28;20028;-78
2022/03/31 11:41:55;;;;;;;3.38;2.83;;;;;;;;;;5063016;28;20067;-77
2022/03/31 11:44:22;;;;;;;4.55;3.00;;;;;;;;;;5056471;28;20059;-77
2022/03/31 11:46:49;;;;;;;4.28;3.22;;;;;;;;;;5056272;28;20028;-77
2022/03/31 11:49:15;;;;;;;3.70;3.05;;;;;;;;;;5056249;28;20068;-78
2022/03/31 11:51:41;;;;;;;2.92;2.45;;;;;;;;;;5038406;28;20021;-78
2022/03/31 11:54:11;;;;;;;2.95;2.63;;;;;;;;;;5056202;28;20021;-77
2022/03/31 11:56:37;;;;;;;3.50;2.45;;;;;;;;;;5056132;28;20021;-78
2022/03/31 11:59:05;;;;;;;6.50;2.90;;;;;;;;;;5056006;28;20043;-77
2022/03/31 12:01:37;;;;;;;3.35;2.20;;;;;;;;;;5056018;28;20044;-77
2022/03/31 12:04:03;;;;;;;2.60;2.22;;;;;;;;;;5056182;28;20057;-78
2022/03/31 12:06:32;;;;;;;3.28;2.05;;;;;;;;;;5056172;28;20363;-78
2022/03/31 12:08:58;;;;;;;2.75;2.50;;;;;;;;;;5055593;28;20083;-77
2022/03/31 12:11:25;;;;;;;4.07;2.40;;;;;;;;;;5055901;28;20066;-77
2022/03/31 12:13:57;;;;;;;2.45;2.25;;;;;;;;;;5048640;28;20036;-78
2022/03/31 12:16:23;;;;;;;;;;;;;;;;;;5076116;28;20044;-78
2022/03/31 12:19:00;;;;;;;2.65;2.10;;;;;;;;;;5075672;28;19971;-77
2022/03/31 12:21:27;;;;;;;2.08;1.88;;;;;;;;;;5075775;28;20029;-77
2022/03/31 12:23:54;;;;;;;2.45;2.00;;;;;;;;;;5075786;28;20033;-77
2022/03/31 12:26:23;;;;;;;2.20;1.80;;;;;;;;;;5075424;28;20078;-77
2022/03/31 12:28:50;;;;;;;3.35;2.40;;;;;;;;;;5075323;28;20035;-78
2022/03/31 12:31:22;;;;;;;4.10;2.70;;;;;;;;;;5057470;28;20021;-78
2022/03/31 12:33:51;;;;;;;3.53;2.40;;;;;;;;;;5075415;28;20099;-77
2022/03/31 12:36:17;;;;;;;3.25;2.50;;;;;;;;;;5075191;28;20043;-78
2022/03/31 12:38:43;;;;;;;1.90;1.50;;;;;;;;;;5075142;28;20166;-77
2022/03/31 12:41:15;;;;;;;1.73;1.60;;;;;;;;;;5068338;28;20021;-77
2022/03/31 12:43:41;;;;;;;4.90;1.80;;;;;;;;;;5054255;28;20025;-78
2022/03/31 12:46:17;;;;;;;2.05;1.85;;;;;;;;;;5055206;28;20048;-77
2022/03/31 12:48:53;;;;;;;1.75;1.55;;;;;;;;;;5055097;28;20029;-78
2022/03/31 12:51:19;;;;;;;1.48;1.38;;;;;;;;;;5035614;28;20052;-78
2022/03/31 12:53:45;;;;;;;1.63;1.45;;;;;;;;;;5017242;28;20125;-78
2022/03/31 12:56:11;;;;;;;1.90;1.60;;;;;;;;;;5035005;28;20040;-78
2022/03/31 12:58:38;;;;;;;2.25;1.42;;;;;;;;;;5034971;28;20033;-77
2022/03/31 13:01:04;;;;;;;1.40;1.30;;;;;;;;;;5035189;28;20340;-77
2022/03/31 13:03:30;;;;;;;1.40;1.30;;;;;;;;;;5034941;28;20037;-77
2022/03/31 13:05:56;;;;;;;1.45;1.20;;;;;;;;;;5035178;28;20052;-77
2022/03/31 13:08:22;;;;;;;1.67;1.40;;;;;;;;;;5034859;28;20565;-78
2022/03/31 13:10:48;;;;;;;2.80;1.52;;;;;;;;;;5034696;28;20033;-78
2022/03/31 13:13:14;;;;;;;1.60;1.30;;;;;;;;;;5034995;28;20067;-77
2022/03/31 13:15:41;;;;;;;2.42;1.60;;;;;;;;;;5034733;28;20029;-77
2022/03/31 13:18:08;;;;;;;2.10;1.75;;;;;;;;;;5034429;28;20029;-77
2022/03/31 13:20:35;;;;;;;4.57;2.35;;;;;;;;;;5050605;28;20029;-77
2022/03/31 13:23:01;;;;;;;2.53;1.48;;;;;;;;;;5054232;28;20104;-77
2022/03/31 13:25:27;;;;;;;2.35;1.73;;;;;;;;;;5054433;28;20037;-77
2022/03/31 13:27:53;;;;;;;1.50;1.10;;;;;;;;;;5054116;28;20033;-77
2022/03/31 13:30:19;;;;;;;1.50;1.08;;;;;;;;;;5036479;28;20024;-77
2022/03/31 13:32:45;;;;;;;1.40;1.30;;;;;;;;;;5053969;28;20021;-77
2022/03/31 13:35:12;;;;;;;1.42;1.30;;;;;;;;;;5054389;28;20029;-77
2022/03/31 13:37:39;;;;;;;1.30;1.15;;;;;;;;;;5054094;28;20025;-77
2022/03/31 13:40:07;;;;;;;1.65;1.35;;;;;;;;;;5054473;28;20111;-77
2022/03/31 13:42:35;;;;;;;2.03;1.50;;;;;;;;;;5054105;28;20347;-77
2022/03/31 13:45:02;;;;;;;1.88;1.27;;;;;;;;;;5053979;28;20052;-77
2022/03/31 13:47:29;;;;;;;1.67;1.55;;;;;;;;;;5053807;28;20056;-77
2022/03/31 13:49:55;;;;;;;2.35;1.50;;;;;;;;;;5063591;28;20044;-77
2022/03/31 13:52:21;;;;;;;1.73;1.40;;;;;;;;;;5073978;28;20090;-77
2022/03/31 13:54:47;;;;;;;2.28;1.40;;;;;;;;;;5073866;28;20398;-77
2022/03/31 14:02:45;;;;;;;1.48;1.20;;;;;;;;;;5073866;28;20047;-77
2022/03/31 14:05:11;;;;;;;1.25;1.08;;;;;;;;;;5073834;28;20139;-77
2022/03/31 14:07:37;;;;;;;1.25;1.00;;;;;;;;;;5073633;28;20020;-77
2022/03/31 14:10:04;;;;;;;1.40;1.02;;;;;;;;;;5073383;28;20036;-77
2022/03/31 14:12:31;;;;;;;1.60;1.30;;;;;;;;;;5073580;28;20483;-77
2022/03/31 14:14:57;;;;;;;1.23;1.00;;;;;;;;;;5054161;28;20040;-77
2022/03/31 14:17:23;;;;;;;1.58;1.23;;;;;;;;;;5053994;28;20358;-77
2022/03/31 14:19:49;;;;;;;2.28;1.35;;;;;;;;;;5053654;28;20029;-77
2022/03/31 14:22:15;;;;;;;1.30;1.10;;;;;;;;;;5053435;28;20060;-77
2022/03/31 14:24:41;;;;;;;1.17;1.00;;;;;;;;;;5052077;28;20040;-77
2022/03/31 14:27:07;;;;;;;1.58;1.23;;;;;;;;;;5053317;28;20418;-77
2022/03/31 14:29:34;;;;;;;2.13;1.40;;;;;;;;;;5053039;28;20033;-77
2022/03/31 14:32:00;;;;;;;3.08;1.60;;;;;;;;;;5053495;28;20017;-77
2022/03/31 14:34:27;;;;;;;3.65;1.80;;;;;;;;;;5052974;28;20025;-77
2022/03/31 14:36:54;;;;;;;2.40;1.60;;;;;;;;;;5052897;28;20387;-77
2022/03/31 14:39:21;;;;;;;1.92;1.40;;;;;;;;;;5051980;28;20426;-77
2022/03/31 14:41:48;;;;;;;1.38;1.25;;;;;;;;;;5052287;28;20493;-75
2022/03/31 14:44:15;;;;;;;1.75;1.35;;;;;;;;;;5051953;28;20029;-74
2022/03/31 14:46:41;;;;;;;2.10;1.48;;;;;;;;;;5051991;28;20022;-74
2022/03/31 14:49:08;;;;;;;1.60;1.27;;;;;;;;;;5051732;28;20406;-74
2022/03/31 14:51:35;;;;;;;1.77;1.48;;;;;;;;;;5051840;28;20116;-74